createdAt,value
2018-08-12T00:00:36.603Z,101339.31
2018-08-12T00:01:37.460Z,101338.70
2018-08-12T00:02:37.181Z,101338.58
2018-08-12T00:03:38.966Z,101338.27
2018-08-12T00:04:39.734Z,101338.05
2018-08-12T00:05:40.512Z,101337.63
2018-08-12T00:06:41.286Z,101337.58
2018-08-12T00:07:42.130Z,101337.11
2018-08-12T00:08:42.904Z,101336.63
2018-08-12T00:09:43.677Z,101337.12
2018-08-12T00:10:44.451Z,101336.75
2018-08-12T00:11:45.227Z,101335.97
2018-08-12T00:12:46.024Z,101336.27
2018-08-12T00:13:46.799Z,101336.00
2018-08-12T00:14:47.569Z,101336.12
2018-08-12T00:15:48.350Z,101335.59
2018-08-12T00:16:49.117Z,101334.95
2018-08-12T00:17:49.923Z,101334.31
2018-08-12T00:18:50.688Z,101334.17
2018-08-12T00:19:51.466Z,101333.45
2018-08-12T00:20:52.237Z,101333.57
2018-08-12T00:21:53.019Z,101334.00
2018-08-12T00:22:53.813Z,101333.77
2018-08-12T00:23:54.587Z,101333.98
2018-08-12T00:24:55.358Z,101334.02
2018-08-12T00:25:56.161Z,101333.41
2018-08-12T00:26:56.944Z,101333.02
2018-08-12T00:27:57.740Z,101332.92
2018-08-12T00:28:58.513Z,101332.91
2018-08-12T00:29:59.288Z,101332.64
2018-08-12T00:31:00.064Z,101332.30
2018-08-12T00:32:00.879Z,101331.80
2018-08-12T00:33:00.639Z,101331.09
2018-08-12T00:34:02.419Z,101331.13
2018-08-12T00:35:03.189Z,101331.00
2018-08-12T00:36:03.966Z,101330.61
2018-08-12T00:37:04.738Z,101329.71
2018-08-12T00:38:05.540Z,101329.44
2018-08-12T00:39:06.313Z,101328.63
2018-08-12T00:40:09.858Z,101327.91
2018-08-12T00:41:07.629Z,101327.72
2018-08-12T00:42:08.402Z,101327.08
2018-08-12T00:43:09.203Z,101326.17
2018-08-12T00:44:09.977Z,101325.07
2018-08-12T00:45:10.750Z,101324.30
2018-08-12T00:46:11.529Z,101324.16
2018-08-12T00:47:12.300Z,101323.91
2018-08-12T00:48:14.097Z,101323.38
2018-08-12T00:49:13.869Z,101323.33
2018-08-12T00:50:14.643Z,101322.94
2018-08-12T00:51:15.415Z,101323.09
2018-08-12T00:52:16.193Z,101322.88
2018-08-12T00:53:16.989Z,101322.91
2018-08-12T00:54:17.759Z,101322.61
2018-08-12T00:55:19.531Z,101322.81
2018-08-12T00:56:19.307Z,101322.29
2018-08-12T00:57:20.134Z,101322.33
2018-08-12T00:58:19.872Z,101321.85
2018-08-12T00:59:21.651Z,101321.46
2018-08-12T01:00:22.431Z,101321.21
2018-08-12T01:01:23.202Z,101320.73
2018-08-12T01:02:22.970Z,101320.00
2018-08-12T01:03:24.771Z,101319.88
2018-08-12T01:04:25.561Z,101319.39
2018-08-12T01:05:26.311Z,101318.66
2018-08-12T01:06:27.092Z,101318.02
2018-08-12T01:07:27.865Z,101317.38
2018-08-12T01:08:28.664Z,101317.08
2018-08-12T01:09:29.435Z,101316.62
2018-08-12T01:10:30.212Z,101316.50
2018-08-12T01:11:30.983Z,101316.19
2018-08-12T01:12:31.764Z,101315.80
2018-08-12T01:13:32.562Z,101315.33
2018-08-12T01:14:33.380Z,101314.94
2018-08-12T01:15:34.152Z,101314.41
2018-08-12T01:16:34.933Z,101313.77
2018-08-12T01:17:35.698Z,101313.50
2018-08-12T01:18:36.492Z,101312.89
2018-08-12T01:19:37.269Z,101312.58
2018-08-12T01:20:38.048Z,101312.23
2018-08-12T01:21:38.818Z,101311.58
2018-08-12T01:22:39.591Z,101311.50
2018-08-12T01:23:39.388Z,101311.02
2018-08-12T01:24:41.170Z,101310.41
2018-08-12T01:25:41.936Z,101310.61
2018-08-12T01:26:42.716Z,101309.72
2018-08-12T01:27:43.486Z,101309.92
2018-08-12T01:28:44.295Z,101309.70
2018-08-12T01:29:45.066Z,101309.43
2018-08-12T01:30:45.839Z,101309.07
2018-08-12T01:31:46.613Z,101308.77
2018-08-12T01:32:47.391Z,101309.00
2018-08-12T01:33:48.565Z,101308.61
2018-08-12T01:42:28.221Z,101298.30
2018-08-12T01:43:27.992Z,101297.69
2018-08-12T01:44:28.784Z,101297.64
2018-08-12T01:45:29.554Z,101297.13
2018-08-12T01:46:30.327Z,101296.62
2018-08-12T01:47:31.101Z,101296.91
2018-08-12T01:48:31.874Z,101296.94
2018-08-12T01:49:32.685Z,101297.34
2018-08-12T01:50:33.453Z,101297.80
2018-08-12T01:51:33.219Z,101297.92
2018-08-12T01:52:34.991Z,101298.03
2018-08-12T01:53:35.764Z,101297.90
2018-08-12T01:54:36.560Z,101297.84
2018-08-12T01:55:37.331Z,101298.17
2018-08-12T01:56:39.102Z,101298.32
2018-08-12T01:57:38.878Z,101298.13
2018-08-12T01:58:39.646Z,101298.36
2018-08-12T01:59:40.445Z,101298.31
2018-08-12T02:00:41.219Z,101298.34
2018-08-12T02:01:41.985Z,101298.37
2018-08-12T02:02:42.760Z,101298.49
2018-08-12T02:03:43.534Z,101297.94
2018-08-12T02:04:44.336Z,101297.97
2018-08-12T02:05:45.106Z,101297.52
2018-08-12T02:06:45.886Z,101297.47
2018-08-12T02:07:46.656Z,101297.16
2018-08-12T02:08:46.435Z,101296.46
2018-08-12T02:09:48.225Z,101296.23
2018-08-12T02:10:49.090Z,101295.54
2018-08-12T02:11:48.794Z,101296.16
2018-08-12T02:12:50.567Z,101296.28
2018-08-12T02:13:51.335Z,101295.92
2018-08-12T02:14:52.138Z,101295.98
2018-08-12T02:15:52.908Z,101295.77
2018-08-12T02:16:53.681Z,101295.31
2018-08-12T02:17:54.466Z,101294.84
2018-08-12T02:18:55.234Z,101295.16
2018-08-12T02:19:56.054Z,101295.02
2018-08-12T02:20:56.820Z,101294.23
2018-08-12T02:21:57.593Z,101294.60
2018-08-12T02:22:58.364Z,101294.05
2018-08-12T02:23:59.136Z,101293.77
2018-08-12T02:24:59.942Z,101293.63
2018-08-12T02:26:00.710Z,101292.98
2018-08-12T02:27:01.490Z,101292.67
2018-08-12T02:28:02.266Z,101293.05
2018-08-12T02:29:03.037Z,101292.77
2018-08-12T02:30:03.837Z,101292.12
2018-08-12T02:31:04.610Z,101291.75
2018-08-12T02:32:05.388Z,101291.62
2018-08-12T02:33:06.161Z,101290.83
2018-08-12T02:34:06.939Z,101290.19
2018-08-12T02:35:07.735Z,101289.31
2018-08-12T02:36:08.511Z,101288.19
2018-08-12T02:37:09.287Z,101287.03
2018-08-12T02:38:10.111Z,101285.73
2018-08-12T02:39:10.831Z,101284.44
2018-08-12T02:40:11.644Z,101283.63
2018-08-12T02:41:12.420Z,101282.16
2018-08-12T02:42:13.190Z,101281.27
2018-08-12T02:43:13.963Z,101280.45
2018-08-12T02:44:14.736Z,101280.39
2018-08-12T02:45:15.538Z,101279.48
2018-08-12T02:46:16.311Z,101278.02
2018-08-12T02:47:17.082Z,101276.67
2018-08-12T02:48:17.853Z,101275.59
2018-08-12T02:49:18.626Z,101274.75
2018-08-12T02:50:19.427Z,101274.10
2018-08-12T02:51:20.209Z,101273.59
2018-08-12T02:52:20.978Z,101272.27
2018-08-12T02:53:21.756Z,101271.59
2018-08-12T02:54:22.516Z,101269.89
2018-08-12T02:55:23.312Z,101268.84
2018-08-12T02:56:24.089Z,101267.49
2018-08-12T02:57:24.869Z,101266.48
2018-08-12T02:58:25.649Z,101265.80
2018-08-12T02:59:26.417Z,101264.73
2018-08-12T03:00:27.216Z,101264.47
2018-08-12T03:01:27.985Z,101263.66
2018-08-12T03:02:28.766Z,101262.89
2018-08-12T03:03:29.536Z,101262.22
2018-08-12T03:04:30.314Z,101261.20
2018-08-12T03:05:31.117Z,101260.86
2018-08-12T03:06:31.886Z,101259.63
2018-08-12T03:07:32.668Z,101259.20
2018-08-12T03:08:33.449Z,101258.18
2018-08-12T03:09:34.215Z,101257.62
2018-08-12T03:10:35.015Z,101256.52
2018-08-12T03:11:35.788Z,101255.33
2018-08-12T03:12:37.580Z,101254.23
2018-08-12T03:13:37.359Z,101253.47
2018-08-12T03:14:38.124Z,101252.62
2018-08-12T03:15:38.908Z,101251.34
2018-08-12T03:16:39.674Z,101250.67
2018-08-12T03:17:40.465Z,101249.66
2018-08-12T03:18:41.244Z,101249.14
2018-08-12T03:19:42.017Z,101248.30
2018-08-12T03:20:42.790Z,101246.52
2018-08-12T03:21:43.570Z,101246.17
2018-08-12T03:22:44.364Z,101245.02
2018-08-12T03:23:45.140Z,101244.20
2018-08-12T03:24:45.920Z,101242.97
2018-08-12T03:25:46.695Z,101241.67
2018-08-12T03:26:47.467Z,101239.95
2018-08-12T03:27:48.259Z,101238.74
2018-08-12T03:28:49.036Z,101237.59
2018-08-12T03:29:49.802Z,101236.89
2018-08-12T03:30:50.589Z,101235.81
2018-08-12T03:31:51.352Z,101234.35
2018-08-12T03:32:53.611Z,101233.45
2018-08-12T03:33:52.806Z,101232.04
2018-08-12T03:35:19.101Z,101207.60
2018-08-12T03:36:19.874Z,101207.83
2018-08-12T03:37:20.647Z,101207.49
2018-08-12T03:38:21.438Z,101207.52
2018-08-12T03:39:22.208Z,101207.52
2018-08-12T03:40:22.979Z,101207.64
2018-08-12T03:41:23.754Z,101207.13
2018-08-12T03:42:24.522Z,101207.16
2018-08-12T03:43:25.318Z,101206.59
2018-08-12T03:44:26.094Z,101206.09
2018-08-12T03:45:26.862Z,101205.78
2018-08-12T03:46:27.639Z,101205.27
2018-08-12T03:47:28.408Z,101204.88
2018-08-12T03:48:29.216Z,101204.66
2018-08-12T03:49:29.987Z,101204.43
2018-08-12T03:50:30.761Z,101204.52
2018-08-12T03:51:31.537Z,101203.81
2018-08-12T03:52:32.310Z,101203.59
2018-08-12T03:53:33.113Z,101203.02
2018-08-12T03:54:33.882Z,101202.69
2018-08-12T03:55:34.662Z,101202.20
2018-08-12T03:56:35.433Z,101202.27
2018-08-12T03:57:36.231Z,101201.78
2018-08-12T03:58:37.015Z,101201.48
2018-08-12T03:59:37.799Z,101200.66
2018-08-12T04:00:38.562Z,101200.61
2018-08-12T04:01:39.343Z,101200.47
2018-08-12T04:02:40.112Z,101200.33
2018-08-12T04:03:40.913Z,101200.02
2018-08-12T04:04:41.687Z,101199.03
2018-08-12T04:05:42.466Z,101198.18
2018-08-12T04:06:43.238Z,101197.95
2018-08-12T04:07:44.011Z,101197.42
2018-08-12T04:08:44.813Z,101196.94
2018-08-12T04:09:45.594Z,101196.13
2018-08-12T04:10:46.362Z,101196.12
2018-08-12T04:11:47.141Z,101195.90
2018-08-12T04:12:47.911Z,101196.18
2018-08-12T04:13:48.714Z,101195.61
2018-08-12T04:14:49.490Z,101195.05
2018-08-12T04:15:50.264Z,101194.58
2018-08-12T04:16:51.039Z,101195.00
2018-08-12T04:17:51.816Z,101194.83
2018-08-12T04:18:52.652Z,101194.69
2018-08-12T04:19:52.389Z,101195.45
2018-08-12T04:20:55.167Z,101195.53
2018-08-12T04:21:54.937Z,101195.65
2018-08-12T04:22:55.716Z,101195.14
2018-08-12T04:23:56.513Z,101194.88
2018-08-12T04:24:57.284Z,101194.91
2018-08-12T04:25:58.058Z,101195.03
2018-08-12T04:26:58.848Z,101194.80
2018-08-12T04:27:59.618Z,101194.72
2018-08-12T04:29:00.415Z,101194.38
2018-08-12T04:30:01.191Z,101193.98
2018-08-12T04:31:01.967Z,101193.84
2018-08-12T04:32:02.748Z,101193.92
2018-08-12T04:33:03.512Z,101193.59
2018-08-12T04:34:04.316Z,101193.33
2018-08-12T04:35:05.087Z,101193.33
2018-08-12T04:36:05.867Z,101193.11
2018-08-12T04:37:06.638Z,101193.28
2018-08-12T04:38:07.417Z,101192.94
2018-08-12T04:39:08.216Z,101192.86
2018-08-12T04:40:08.990Z,101192.86
2018-08-12T04:41:09.769Z,101192.60
2018-08-12T04:42:10.547Z,101192.83
2018-08-12T04:43:11.316Z,101192.74
2018-08-12T04:44:12.119Z,101193.00
2018-08-12T04:45:12.915Z,101193.08
2018-08-12T04:46:13.671Z,101193.62
2018-08-12T04:47:14.440Z,101193.78
2018-08-12T04:48:15.216Z,101194.04
2018-08-12T04:49:16.017Z,101193.87
2018-08-12T04:50:16.801Z,101194.38
2018-08-12T04:51:17.564Z,101194.20
2018-08-12T04:52:18.342Z,101193.95
2018-08-12T04:53:19.112Z,101194.34
2018-08-12T04:54:19.917Z,101194.44
2018-08-12T04:55:20.690Z,101194.61
2018-08-12T04:56:21.466Z,101194.06
2018-08-12T04:57:22.244Z,101194.04
2018-08-12T04:58:23.022Z,101193.87
2018-08-12T04:59:23.817Z,101193.33
2018-08-12T05:00:24.591Z,101193.16
2018-08-12T05:01:25.368Z,101192.97
2018-08-12T05:02:26.142Z,101193.78
2018-08-12T05:03:26.918Z,101194.15
2018-08-12T05:04:27.716Z,101195.02
2018-08-12T05:05:28.489Z,101195.08
2018-08-12T05:06:29.265Z,101195.53
2018-08-12T05:07:30.041Z,101195.55
2018-08-12T05:08:30.816Z,101195.33
2018-08-12T05:09:31.642Z,101195.39
2018-08-12T05:10:32.397Z,101195.33
2018-08-12T05:11:33.174Z,101195.53
2018-08-12T05:12:33.949Z,101194.76
2018-08-12T05:13:34.719Z,101194.19
2018-08-12T05:14:35.517Z,101193.45
2018-08-12T05:15:36.292Z,101192.89
2018-08-12T05:16:37.069Z,101192.45
2018-08-12T05:17:37.843Z,101192.03
2018-08-12T05:18:38.619Z,101191.52
2018-08-12T05:19:39.419Z,101190.96
2018-08-12T05:20:40.193Z,101190.27
2018-08-12T05:21:40.969Z,101189.76
2018-08-12T05:22:41.841Z,101188.84
2018-08-12T05:23:41.919Z,101188.78
2018-08-12T05:24:43.129Z,101188.44
2018-08-12T05:25:42.316Z,101188.35
2018-08-12T05:26:48.790Z,101181.83
2018-08-12T05:27:50.561Z,101178.25
2018-08-12T05:28:51.335Z,101178.08
2018-08-12T05:29:52.130Z,101177.55
2018-08-12T05:30:52.904Z,101177.56
2018-08-12T05:31:53.678Z,101177.15
2018-08-12T05:32:54.449Z,101176.34
2018-08-12T05:33:55.221Z,101175.45
2018-08-12T05:34:56.015Z,101175.33
2018-08-12T05:35:56.786Z,101174.62
2018-08-12T05:36:57.564Z,101174.18
2018-08-12T05:37:58.332Z,101173.72
2018-08-12T05:38:59.116Z,101173.94
2018-08-12T05:39:59.910Z,101172.92
2018-08-12T05:41:00.687Z,101171.92
2018-08-12T05:42:01.460Z,101171.05
2018-08-12T05:43:02.229Z,101170.14
2018-08-12T05:44:03.002Z,101169.42
2018-08-12T05:45:03.804Z,101168.47
2018-08-12T05:46:04.578Z,101167.50
2018-08-12T05:47:05.354Z,101166.08
2018-08-12T05:48:06.127Z,101165.34
2018-08-12T05:49:06.903Z,101164.83
2018-08-12T05:50:07.703Z,101164.58
2018-08-12T05:51:08.506Z,101164.48
2018-08-12T05:52:08.245Z,101164.16
2018-08-12T05:53:10.024Z,101163.70
2018-08-12T05:54:10.794Z,101162.98
2018-08-12T05:55:11.590Z,101162.13
2018-08-12T05:56:12.363Z,101161.34
2018-08-12T05:57:13.217Z,101159.82
2018-08-12T05:58:12.908Z,101158.59
2018-08-12T05:59:14.689Z,101157.02
2018-08-12T06:00:14.484Z,101156.05
2018-08-12T06:01:16.262Z,101154.45
2018-08-12T06:02:17.035Z,101153.69
2018-08-12T06:03:17.812Z,101153.74
2018-08-12T06:04:18.586Z,101153.17
2018-08-12T06:05:19.386Z,101152.30
2018-08-12T06:06:20.157Z,101151.30
2018-08-12T06:07:20.938Z,101149.91
2018-08-12T06:08:21.712Z,101149.31
2018-08-12T06:09:22.495Z,101147.94
2018-08-12T06:10:23.290Z,101147.00
2018-08-12T06:11:24.084Z,101146.08
2018-08-12T06:12:24.842Z,101145.44
2018-08-12T06:13:25.614Z,101144.90
2018-08-12T06:14:26.391Z,101144.44
2018-08-12T06:15:27.189Z,101143.88
2018-08-12T06:16:27.960Z,101143.17
2018-08-12T06:17:28.836Z,101142.03
2018-08-12T06:18:28.509Z,101141.94
2018-08-12T06:19:30.282Z,101141.66
2018-08-12T06:20:31.092Z,101141.38
2018-08-12T06:21:31.877Z,101141.47
2018-08-12T06:22:32.641Z,101141.20
2018-08-12T06:23:33.422Z,101141.34
2018-08-12T06:24:34.193Z,101141.20
2018-08-12T06:25:34.996Z,101140.44
2018-08-12T06:26:35.768Z,101140.70
2018-08-12T06:27:36.540Z,101139.95
2018-08-12T06:28:37.316Z,101139.67
2018-08-12T06:29:38.089Z,101139.19
2018-08-12T06:30:38.891Z,101138.78
2018-08-12T06:31:39.662Z,101137.84
2018-08-12T06:32:40.441Z,101137.45
2018-08-12T06:33:41.213Z,101137.12
2018-08-12T06:34:41.991Z,101136.55
2018-08-12T06:35:42.795Z,101136.16
2018-08-12T06:36:43.564Z,101135.77
2018-08-12T06:37:44.339Z,101135.76
2018-08-12T06:38:45.115Z,101134.95
2018-08-12T06:39:45.911Z,101134.86
2018-08-12T06:40:46.688Z,101134.16
2018-08-12T06:41:47.474Z,101133.67
2018-08-12T06:42:48.238Z,101132.95
2018-08-12T06:43:49.017Z,101132.05
2018-08-12T06:44:49.788Z,101131.30
2018-08-12T06:45:50.591Z,101130.38
2018-08-12T06:46:51.363Z,101129.52
2018-08-12T06:47:52.139Z,101129.34
2018-08-12T06:48:52.910Z,101128.55
2018-08-12T06:49:53.693Z,101128.02
2018-08-12T06:50:54.490Z,101127.29
2018-08-12T06:51:55.322Z,101127.12
2018-08-12T06:52:55.042Z,101126.61
2018-08-12T06:53:56.812Z,101126.00
2018-08-12T06:54:57.599Z,101125.39
2018-08-12T06:55:58.386Z,101125.08
2018-08-12T06:56:59.173Z,101123.93
2018-08-12T06:57:59.944Z,101123.62
2018-08-12T06:59:00.720Z,101122.99
2018-08-12T07:00:01.491Z,101122.91
2018-08-12T07:01:02.300Z,101121.95
2018-08-12T07:02:03.069Z,101121.08
2018-08-12T07:03:03.844Z,101120.48
2018-08-12T07:04:04.617Z,101119.42
2018-08-12T07:05:05.391Z,101117.94
2018-08-12T07:06:06.191Z,101116.34
2018-08-12T07:07:06.965Z,101115.03
2018-08-12T07:08:07.740Z,101113.97
2018-08-12T07:09:08.514Z,101113.29
2018-08-12T07:10:09.292Z,101112.25
2018-08-12T07:11:10.111Z,101111.22
2018-08-12T07:12:10.872Z,101110.14
2018-08-12T07:13:11.646Z,101109.20
2018-08-12T07:14:12.428Z,101108.17
2018-08-12T07:15:13.194Z,101106.94
2018-08-12T07:16:13.987Z,101105.76
2018-08-12T07:17:14.768Z,101104.44
2018-08-12T07:18:15.900Z,101103.30
2018-08-12T07:23:14.568Z,101077.22
2018-08-12T07:24:15.427Z,101077.64
2018-08-12T07:25:15.125Z,101077.22
2018-08-12T07:26:15.894Z,101076.73
2018-08-12T07:27:17.666Z,101077.09
2018-08-12T07:28:18.461Z,101077.27
2018-08-12T07:29:19.242Z,101076.84
2018-08-12T07:30:20.009Z,101076.64
2018-08-12T07:31:20.782Z,101076.30
2018-08-12T07:32:21.551Z,101075.04
2018-08-12T07:33:22.352Z,101074.80
2018-08-12T07:34:23.125Z,101073.81
2018-08-12T07:35:23.903Z,101072.91
2018-08-12T07:36:24.682Z,101072.48
2018-08-12T07:37:25.452Z,101071.02
2018-08-12T07:38:26.258Z,101070.25
2018-08-12T07:39:27.026Z,101068.92
2018-08-12T07:40:28.804Z,101067.98
2018-08-12T07:41:28.576Z,101067.09
2018-08-12T07:42:29.347Z,101066.22
2018-08-12T07:43:30.150Z,101065.89
2018-08-12T07:44:30.916Z,101064.80
2018-08-12T07:45:31.698Z,101063.44
2018-08-12T07:46:32.472Z,101062.45
2018-08-12T07:47:33.250Z,101061.38
2018-08-12T07:48:34.037Z,101060.45
2018-08-12T07:49:34.809Z,101058.95
2018-08-12T07:50:35.579Z,101057.84
2018-08-12T07:51:36.349Z,101056.97
2018-08-12T07:52:38.137Z,101055.71
2018-08-12T07:53:37.934Z,101054.36
2018-08-12T07:54:37.707Z,101053.39
2018-08-12T07:55:39.574Z,101052.32
2018-08-12T07:56:39.252Z,101051.92
2018-08-12T07:57:41.033Z,101050.67
2018-08-12T07:58:41.826Z,101050.06
2018-08-12T07:59:42.599Z,101049.38
2018-08-12T08:00:43.374Z,101048.13
2018-08-12T08:01:44.145Z,101047.23
2018-08-12T08:02:44.922Z,101047.11
2018-08-12T08:03:45.715Z,101046.56
2018-08-12T08:04:46.487Z,101046.07
2018-08-12T08:05:47.260Z,101046.10
2018-08-12T08:06:48.030Z,101045.54
2018-08-12T08:07:48.801Z,101045.13
2018-08-12T08:08:49.604Z,101043.78
2018-08-12T08:09:50.378Z,101043.48
2018-08-12T08:10:51.155Z,101042.56
2018-08-12T08:11:51.928Z,101041.94
2018-08-12T08:12:52.705Z,101041.10
2018-08-12T08:13:53.502Z,101040.65
2018-08-12T08:14:54.275Z,101039.80
2018-08-12T08:15:55.053Z,101038.78
2018-08-12T08:16:55.831Z,101037.83
2018-08-12T08:17:56.605Z,101037.17
2018-08-12T08:18:57.399Z,101036.63
2018-08-12T08:19:58.183Z,101036.63
2018-08-12T08:20:58.953Z,101036.23
2018-08-12T08:21:59.731Z,101035.66
2018-08-12T08:23:00.507Z,101035.16
2018-08-12T08:24:01.306Z,101034.34
2018-08-12T08:25:02.080Z,101033.97
2018-08-12T08:26:02.858Z,101033.17
2018-08-12T08:27:03.630Z,101032.48
2018-08-12T08:28:03.400Z,101031.31
2018-08-12T08:29:05.208Z,101031.28
2018-08-12T08:30:05.978Z,101030.59
2018-08-12T08:31:06.757Z,101030.95
2018-08-12T08:32:07.533Z,101031.38
2018-08-12T08:33:07.303Z,101031.53
2018-08-12T08:34:09.104Z,101031.00
2018-08-12T08:35:08.875Z,101031.08
2018-08-12T08:36:10.648Z,101031.16
2018-08-12T08:37:11.424Z,101031.13
2018-08-12T08:38:12.196Z,101030.96
2018-08-12T08:39:12.990Z,101030.21
2018-08-12T08:40:13.761Z,101029.87
2018-08-12T08:41:14.538Z,101029.33
2018-08-12T08:42:15.310Z,101028.88
2018-08-12T08:43:16.089Z,101027.93
2018-08-12T08:44:16.882Z,101026.73
2018-08-12T08:45:17.659Z,101026.20
2018-08-12T08:46:18.431Z,101025.36
2018-08-12T08:47:19.204Z,101024.91
2018-08-12T08:48:20.070Z,101024.44
2018-08-12T08:49:19.792Z,101023.45
2018-08-12T08:50:21.566Z,101022.98
2018-08-12T08:51:22.335Z,101022.30
2018-08-12T08:52:23.107Z,101021.82
2018-08-12T08:53:23.880Z,101021.16
2018-08-12T08:54:24.985Z,101020.52
2018-08-12T08:55:23.776Z,101019.75
2018-08-12T08:56:24.658Z,101019.08
2018-08-12T08:57:25.448Z,101018.73
2018-08-12T08:58:27.219Z,101017.42
2018-08-12T08:59:28.014Z,101016.33
2018-08-12T09:00:28.793Z,101014.95
2018-08-12T09:01:29.695Z,101013.36
2018-08-12T09:02:29.338Z,101011.89
2018-08-12T09:03:31.114Z,101010.34
2018-08-12T09:04:31.912Z,101009.20
2018-08-12T09:05:32.681Z,101007.56
2018-08-12T09:06:33.543Z,101006.13
2018-08-12T09:07:33.249Z,101003.97
2018-08-12T09:08:35.323Z,101002.61
2018-08-12T09:09:34.818Z,101000.76
2018-08-12T09:10:36.586Z,100999.31
2018-08-12T09:11:37.359Z,100997.75
2018-08-12T09:12:38.140Z,100996.22
2018-08-12T09:13:38.903Z,100994.66
2018-08-12T09:14:39.700Z,100993.95
2018-08-12T09:15:40.472Z,100992.81
2018-08-12T09:16:41.245Z,100991.36
2018-08-12T09:17:42.024Z,100990.31
2018-08-12T09:18:42.796Z,100988.49
2018-08-12T09:19:43.592Z,100987.55
2018-08-12T09:20:44.373Z,100986.09
2018-08-12T09:21:45.521Z,100984.80
2018-08-12T09:22:45.706Z,100982.73
2018-08-12T09:26:01.171Z,100953.22
2018-08-12T09:27:00.942Z,100952.88
2018-08-12T09:28:01.711Z,100953.37
2018-08-12T09:29:02.491Z,100953.21
2018-08-12T09:30:03.258Z,100953.05
2018-08-12T09:31:04.059Z,100952.86
2018-08-12T09:32:04.825Z,100952.62
2018-08-12T09:33:05.600Z,100952.03
2018-08-12T09:34:06.379Z,100952.24
2018-08-12T09:35:07.152Z,100952.22
2018-08-12T09:36:07.956Z,100952.23
2018-08-12T09:37:08.725Z,100951.40
2018-08-12T09:38:09.523Z,100951.23
2018-08-12T09:39:10.283Z,100950.77
2018-08-12T09:40:11.067Z,100950.50
2018-08-12T09:41:11.859Z,100950.14
2018-08-12T09:42:12.631Z,100949.36
2018-08-12T09:43:13.537Z,100948.77
2018-08-12T09:44:13.177Z,100947.52
2018-08-12T09:45:14.952Z,100946.47
2018-08-12T09:46:15.750Z,100945.67
2018-08-12T09:47:16.521Z,100944.35
2018-08-12T09:48:17.303Z,100943.30
2018-08-12T09:49:18.077Z,100942.33
2018-08-12T09:50:18.857Z,100940.56
2018-08-12T09:51:19.682Z,100938.89
2018-08-12T09:52:19.438Z,100937.34
2018-08-12T09:53:21.201Z,100935.73
2018-08-12T09:54:21.975Z,100934.13
2018-08-12T09:55:22.748Z,100932.05
2018-08-12T09:56:23.556Z,100930.45
2018-08-12T09:57:24.325Z,100928.98
2018-08-12T09:58:25.106Z,100927.80
2018-08-12T09:59:25.875Z,100926.03
2018-08-12T10:00:26.760Z,100924.66
2018-08-12T10:01:26.453Z,100923.53
2018-08-12T10:02:28.234Z,100922.17
2018-08-12T10:03:29.001Z,100920.86
2018-08-12T10:04:29.776Z,100919.52
2018-08-12T10:05:30.554Z,100918.17
2018-08-12T10:06:31.353Z,100916.86
2018-08-12T10:07:32.173Z,100914.85
2018-08-12T10:08:31.893Z,100913.47
2018-08-12T10:09:33.665Z,100912.30
2018-08-12T10:10:34.439Z,100910.30
2018-08-12T10:11:35.250Z,100908.95
2018-08-12T10:12:36.008Z,100907.30
2018-08-12T10:13:36.782Z,100905.60
2018-08-12T10:14:37.556Z,100904.33
2018-08-12T10:15:38.402Z,100902.70
2018-08-12T10:16:38.128Z,100900.92
2018-08-12T10:17:39.903Z,100899.02
2018-08-12T10:18:40.675Z,100896.96
2018-08-12T10:19:41.449Z,100895.04
2018-08-12T10:20:42.227Z,100893.64
2018-08-12T10:21:43.029Z,100891.30
2018-08-12T10:22:43.806Z,100890.00
2018-08-12T10:23:44.576Z,100888.42
2018-08-12T10:24:45.347Z,100886.77
2018-08-12T10:25:46.122Z,100885.22
2018-08-12T10:26:46.925Z,100883.98
2018-08-12T10:27:47.703Z,100882.67
2018-08-12T10:28:48.479Z,100881.36
2018-08-12T10:29:49.256Z,100880.16
2018-08-12T10:30:50.026Z,100878.69
2018-08-12T10:31:50.827Z,100877.38
2018-08-12T10:32:51.605Z,100876.05
2018-08-12T10:33:52.376Z,100875.02
2018-08-12T10:34:53.155Z,100873.88
2018-08-12T10:35:53.926Z,100872.69
2018-08-12T10:36:54.732Z,100871.52
2018-08-12T10:37:55.502Z,100870.31
2018-08-12T10:38:56.280Z,100869.28
2018-08-12T10:39:57.053Z,100867.90
2018-08-12T10:40:57.832Z,100866.91
2018-08-12T10:41:58.627Z,100866.22
2018-08-12T10:42:59.411Z,100865.15
2018-08-12T10:44:00.179Z,100864.19
2018-08-12T10:45:00.954Z,100863.05
2018-08-12T10:46:01.723Z,100861.84
2018-08-12T10:47:02.544Z,100860.75
2018-08-12T10:48:03.318Z,100859.09
2018-08-12T10:49:04.099Z,100858.55
2018-08-12T10:50:04.861Z,100857.58
2018-08-12T10:51:05.636Z,100856.16
2018-08-12T10:52:06.439Z,100854.37
2018-08-12T10:53:07.213Z,100853.31
2018-08-12T10:54:07.984Z,100851.84
2018-08-12T10:55:08.755Z,100850.13
2018-08-12T10:56:09.531Z,100848.38
2018-08-12T10:57:10.332Z,100847.18
2018-08-12T10:58:11.105Z,100845.70
2018-08-12T10:59:11.910Z,100843.64
2018-08-12T11:00:12.653Z,100841.95
2018-08-12T11:01:13.429Z,100840.30
2018-08-12T11:02:14.228Z,100838.92
2018-08-12T11:03:15.010Z,100837.16
2018-08-12T11:04:15.787Z,100834.89
2018-08-12T11:05:16.556Z,100833.55
2018-08-12T11:06:17.333Z,100831.45
2018-08-12T11:07:18.148Z,100830.14
2018-08-12T11:08:18.908Z,100829.08
2018-08-12T11:09:19.682Z,100827.73
2018-08-12T11:10:20.457Z,100826.37
2018-08-12T11:11:21.228Z,100825.38
2018-08-12T11:12:22.039Z,100824.17
2018-08-12T11:13:22.802Z,100822.52
2018-08-12T11:14:23.579Z,100820.61
2018-08-12T11:15:24.347Z,100819.47
2018-08-12T11:16:25.121Z,100818.14
2018-08-12T11:17:25.918Z,100816.94
2018-08-12T11:18:27.057Z,100815.45
2018-08-12T11:22:26.282Z,100792.23
2018-08-12T11:23:27.060Z,100791.64
2018-08-12T11:24:27.829Z,100791.36
2018-08-12T11:25:28.600Z,100791.02
2018-08-12T11:26:29.379Z,100790.91
2018-08-12T11:27:30.174Z,100789.80
2018-08-12T11:28:30.974Z,100789.53
2018-08-12T11:29:30.726Z,100788.84
2018-08-12T11:30:32.499Z,100788.01
2018-08-12T11:31:33.271Z,100786.72
2018-08-12T11:32:34.068Z,100785.81
2018-08-12T11:33:34.976Z,100784.77
2018-08-12T11:34:34.783Z,100783.55
2018-08-12T11:35:35.590Z,100781.98
2018-08-12T11:36:36.413Z,100780.53
2018-08-12T11:37:37.185Z,100779.24
2018-08-12T11:38:38.959Z,100778.34
2018-08-12T11:39:39.765Z,100777.20
2018-08-12T11:40:40.525Z,100775.81
2018-08-12T11:41:41.297Z,100774.66
2018-08-12T11:42:42.090Z,100773.56
2018-08-12T11:43:42.909Z,100771.61
2018-08-12T11:44:42.662Z,100770.40
2018-08-12T11:45:44.433Z,100768.42
2018-08-12T11:46:45.206Z,100766.85
2018-08-12T11:47:46.156Z,100764.59
2018-08-12T11:48:45.890Z,100763.66
2018-08-12T11:49:47.668Z,100761.75
2018-08-12T11:50:48.438Z,100760.60